Station: Tindal

  Atmospheric Gas Attenuation - ITU Rec 676-11   --------------- db/100km ---------------
Date Time Temp RH % AH g/m3 Dew Point Wind Direction Speed kph Gust kph Barometer mB Rainfall Since 9am 24GHz 47GHz 76GHz 122GHz 134GHz 241GHz
07 06:50 17.7 46 6.94 5.9 9 9 1013.4 0 15.9 22.3 31.8 83.1 73.5 251.6
07 06:40 16.9 49 7.05 6.1 6 7 1013.3 0 16.2 22.7 32.5 85.0 75.5 258.6
07 06:30 16.6 56 7.91 7.8 9 11 1012.5 0 18.0 24.0 35.8 93.7 86.2 296.2
07 06:20 17.1 58 8.44 8.8 11 11 1012.9 0 19.1 24.7 37.6 98.5 92.3 317.5
07 06:10 17.5 53 7.9 7.8 9 11 1012.8 0 17.9 23.8 35.3 92.6 85.1 292.5
07 06:00 17.4 55 8.15 8.3 11 11 1012.1 0 18.5 24.1 36.3 95.1 88.3 303.5
07 05:50 17.1 60 8.73 9.3 11 11 1012.5 0 19.7 25.1 38.7 101.4 95.9 330.2
07 05:40 16.7 66 9.38 10.3 9 11 1012.3 0 21.1 26.3 41.4 108.7 104.8 361.2
07 05:30 16.6 69 9.75 10.9 9 11 1011.6 0 21.9 26.9 42.9 112.7 109.7 378.4
07 05:20 16.3 73 10.13 11.5 11 11 1012.1 0 22.7 27.6 44.6 117.4 115.3 397.8
07 05:10 15.8 76 10.23 11.6 9 11 1012 0 23.0 27.9 45.3 119.2 117.4 405.1
07 04:50 15.6 78 10.37 11.8 9 9 1011.7 0 23.3 28.2 46.0 121.0 119.5 412.7
07 04:40 15.8 76 10.23 11.6 7 9 1011.7 0 23.0 27.9 45.3 119.2 117.3 405.0
07 04:30 15.9 77 10.43 11.9 6 7 1010.9 0 23.4 28.2 46.0 121.1 119.8 413.7
07 04:20 16.1 73 10.01 11.3 6 7 1011.4 0 22.5 27.4 44.2 116.3 113.9 393.0
07 04:10 17.2 69 10.1 11.5 0 0 1011.4 0 22.6 27.2 44.0 115.6 113.5 391.6
07 04:00 17.6 70 10.5 12.1 0 0 1010.7 0 23.4 27.7 45.3 119.3 118.1 408.0
07 03:50 17.7 70 10.56 12.2 0 0 1011.2 0 23.6 27.8 45.5 119.8 118.8 410.5
07 03:40 17.7 69 10.41 11.9 0 0 1011 0 23.3 27.6 44.9 118.2 116.8 403.4
07 03:30 18 69 10.6 12.2 0 2 1010.4 0 23.6 27.8 45.5 119.7 118.8 410.5
07 03:20 18.1 68 10.51 12.1 2 6 1011.1 0 23.4 27.6 45.1 118.7 117.5 406.0
07 03:10 18.1 69 10.66 12.3 6 6 1011.2 0 23.8 27.9 45.7 120.3 119.5 413.0
07 03:00 17.6 69 10.35 11.9 4 11 1010.6 0 23.1 27.5 44.7 117.6 116.1 401.0
07 02:50 19.4 63 10.51 12.2 0 0 1011.2 0 23.4 27.2 44.4 116.7 115.6 399.4
07 02:40 19.6 63 10.63 12.4 0 0 1011.2 0 23.6 27.4 44.7 117.7 116.9 403.8
07 02:30 19.6 63 10.63 12.4 0 0 1010.6 0 23.6 27.3 44.7 117.6 116.8 403.6
07 02:20 19.7 63 10.7 12.5 0 0 1011.2 0 23.8 27.4 45.0 118.3 117.6 406.5
07 02:10 19.6 63 10.63 12.4 0 0 1011.3 0 23.6 27.4 44.7 117.7 116.9 403.9
07 02:00 19.7 63 10.7 12.5 6 7 1010.7 0 23.8 27.4 44.9 118.2 117.6 406.4
07 01:50 20 63 10.89 12.7 6 7 1011.4 0 24.1 27.7 45.5 119.9 119.7 413.7
07 01:40 20 62 10.71 12.5 6 7 1011.5 0 23.8 27.4 44.8 118.0 117.3 405.5
07 01:30 19.6 63 10.63 12.4 9 13 1010.9 0 23.6 27.3 44.7 117.7 116.8 403.7
07 01:20 19.6 63 10.63 12.4 13 13 1011.6 0 23.6 27.4 44.7 117.8 116.9 404.0
07 01:10 20.2 59 10.32 11.9 9 9 1011.5 0 22.9 26.7 43.2 113.6 112.0 386.9
07 01:00 21.6 56 10.62 12.5 0 0 1010.9 0 23.5 26.7 43.6 114.6 113.7 393.2
07 00:50 21.7 55 10.49 12.3 0 0 1011.6 0 23.2 26.5 43.0 113.2 112.0 387.2
07 00:40 22.2 53 10.4 12.2 0 0 1011.7 0 23.0 26.2 42.4 111.6 110.2 380.8
07 00:30 22.8 52 10.57 12.4 0 6 1011.1 0 23.3 26.3 42.7 112.4 111.4 385.2
07 00:20 23.9 49 10.6 12.8 6 6 1011.8 0 23.3 26.0 42.3 111.3 110.3 381.4
07 00:10 24.5 49 10.97 13.1 9 9 1011.8 0 24.0 26.4 43.4 114.1 114.0 394.5
07 00:00 24.1 49 10.72 12.7 9 11 1011.2 0 23.5 26.1 42.6 112.1 111.4 385.4
06 23:50 24 48 10.44 12.3 9 9 1011.7 0 23.0 25.8 41.6 109.5 108.2 374.0
06 23:40 24.4 47 10.46 12.4 9 9 1011.7 0 23.0 25.7 41.5 109.2 107.9 373.0
06 23:30 24.7 46 10.41 12.3 9 13 1011.1 0 22.9 25.5 41.1 108.2 106.8 369.3
06 23:20 24.6 46 10.35 12.5 11 13 1011.7 0 22.7 25.5 41.0 107.8 106.3 367.4
06 23:10 24 50 10.88 12.9 9 9 1011.7 0 23.9 26.4 43.3 113.9 113.6 393.0
06 23:00 23.5 52 11 13.1 0 0 1011.1 0 24.2 26.7 44.0 115.8 115.8 400.5
06 22:50 22.9 54 11.04 13.1 0 0 1011.6 0 24.3 27.0 44.5 117.2 117.2 405.5
06 22:40 22.7 54 10.91 12.9 0 0 1011.6 0 24.0 26.9 44.1 116.1 115.9 400.8
06 22:30 23.2 52 10.81 12.8 0 0 1010.9 0 23.8 26.5 43.4 114.3 113.8 393.6
06 22:20 23.7 51 10.91 13 0 0 1011.4 0 24.0 26.6 43.6 114.6 114.4 395.7
06 22:10 24.4 49 10.9 13 0 0 1011.3 0 23.9 26.3 43.1 113.5 113.2 391.8
06 22:00 24.5 49 10.97 13.1 0 0 1010.6 0 24.0 26.4 43.3 114.0 113.9 394.1
06 21:50 24.5 48 10.74 12.8 0 0 1011.2 0 23.6 26.1 42.5 111.8 111.1 384.4
06 21:40 24.8 47 10.7 12.7 0 0 1011.1 0 23.5 25.9 42.2 111.0 110.2 381.2
06 21:30 25.2 47 10.94 13.1 0 0 1010.5 0 23.9 26.1 42.8 112.7 112.5 389.3
06 21:20 25.4 45 10.59 12.9 0 0 1011 0 23.2 25.6 41.4 109.0 108.0 373.7
06 21:10 25.4 45 10.59 12.9 0 0 1010.9 0 23.2 25.6 41.4 109.0 108.0 373.6
06 21:00 25.9 45 10.89 13.1 0 0 1010.2 0 23.8 25.9 42.3 111.2 110.9 383.7
06 20:50 26 45 10.96 13.2 0 0 1010.7 0 23.9 25.9 42.5 111.8 111.6 386.4
06 20:40 25.9 45 10.89 13.1 0 0 1010.5 0 23.8 25.9 42.3 111.3 110.9 383.8
06 20:30 26.4 43 10.7 12.8 0 0 1009.8 0 23.4 25.4 41.3 108.6 107.9 373.3
06 20:20 27 41 10.55 12.6 0 0 1010.3 0 23.0 25.0 40.5 106.5 105.4 364.5
06 20:10 27.8 39 10.49 12.6 0 0 1010.2 0 22.9 24.7 39.9 104.8 103.6 358.4
06 20:00 27.9 39 10.55 12.7 0 0 1009.4 0 23.0 24.8 40.0 105.2 104.1 360.2
06 19:50 28.1 37 10.12 12.4 0 0 1009.9 0 22.1 24.1 38.4 101.0 98.9 342.1
06 19:40 28.3 38 10.51 12.6 0 0 1009.7 0 22.9 24.6 39.7 104.3 103.1 356.9
06 19:30 28.4 37 10.29 12.3 6 7 1009 0 22.4 24.3 38.8 102.1 100.4 347.4
06 19:20 28.6 37 10.4 12.5 7 7 1009.5 0 22.6 24.4 39.1 102.9 101.5 351.1
06 19:10 28.6 36 10.12 12.1 7 9 1009.4 0 22.1 24.0 38.1 100.3 98.3 339.9
06 19:00 29.1 35 10.11 12.1 7 9 1008.8 0 22.0 23.8 37.9 99.5 97.5 337.2
06 18:50 29.3 35 10.22 12.3 9 9 1009.2 0 22.2 23.9 38.2 100.3 98.5 340.9
06 18:40 30.2 34 10.42 12.6 11 13 1009.1 0 22.6 24.0 38.4 101.1 99.7 344.9
06 18:30 30.8 32 10.13 12.2 13 19 1008.4 0 22.0 23.4 37.1 97.6 95.7 331.0
06 18:20 31.2 31 10.03 12.1 13 13 1008.9 0 21.7 23.2 36.6 96.3 94.1 325.7
06 18:10 31.4 30 9.81 12.2 19 20 1008.8 0 21.3 22.8 35.8 94.2 91.5 316.5
06 18:00 31.6 31 10.25 12.4 15 22 1008 0 22.2 23.3 37.2 97.7 96.0 332.3
06 17:50 32.1 29 9.85 12.3 15 17 1008.7 0 21.3 22.7 35.6 93.7 91.1 315.3
06 17:40 32.2 29 9.9 11.9 20 24 1008.6 0 21.4 22.7 35.8 94.0 91.6 316.8
06 17:30 31.8 29 9.69 11.6 19 26 1007.8 0 21.0 22.5 35.2 92.6 89.7 310.2
06 17:20 32.5 28 9.71 11.6 15 19 1008.5 0 21.0 22.4 35.0 92.0 89.2 308.5
06 17:10 32.3 28 9.61 11.5 13 15 1008.3 0 20.8 22.3 34.8 91.4 88.3 305.4
06 17:00 31.8 30 10.02 12.1 15 24 1007.7 0 21.7 23.0 36.3 95.4 93.2 322.6
06 16:50 32.4 29 10 12.1 13 15 1008.2 0 21.6 22.8 36.0 94.6 92.4 319.7
06 16:40 32.3 29 9.95 12 22 26 1008.2 0 21.5 22.8 35.9 94.3 92.0 318.2
06 16:30 31.9 30 10.08 12.2 15 24 1007.5 0 21.8 23.0 36.4 95.8 93.8 324.4
06 16:20 32 31 10.47 12.8 15 17 1008.1 0 22.6 23.5 37.7 99.2 97.9 339.1
06 16:10 32.1 31 10.52 13.3 15 17 1008.1 0 22.7 23.6 37.8 99.6 98.4 340.6
06 16:00 31.9 32 10.75 13.2 17 22 1007.5 0 23.2 23.9 38.7 101.8 101.1 350.2
06 15:50 32.5 29 10.06 12.2 17 20 1008.2 0 21.7 22.9 36.1 95.0 92.9 321.5
06 15:40 31.5 33 10.85 13.7 11 13 1008.3 0 23.4 24.2 39.2 103.3 102.8 356.0
06 15:30 32.6 32 11.16 13.8 19 28 1007.7 0 24.0 24.3 39.7 104.6 104.8 363.1
06 15:20 33.1 31 11.1 13.7 17 22 1008.3 0 23.8 24.1 39.3 103.5 103.5 358.8
06 15:10 32.4 33 11.38 14.1 24 28 1008.3 0 24.5 24.7 40.6 107.0 107.6 372.8
06 15:00 32.6 31 10.81 13.3 20 32 1007.9 0 23.3 23.8 38.6 101.5 100.9 349.6
06 14:50 32.9 33 11.69 14.5 22 28 1008.8 0 25.1 25.0 41.4 109.2 110.4 382.9
06 14:40 32.9 32 11.34 14 20 24 1009 0 24.3 24.5 40.3 106.0 106.5 369.2
06 14:30 31.9 34 11.42 14.5 22 32 1008.5 0 24.6 24.9 41.0 108.0 108.7 376.7
06 14:20 31.3 35 11.39 14 13 20 1009.2 0 24.5 25.0 41.2 108.6 109.2 378.5
06 14:10 31.2 36 11.65 14.4 11 13 1009.4 0 25.1 25.4 42.2 111.2 112.4 389.5

Last Refresh: 07-Aug-2020 07:04:17

Most of the information presented on this site is sourced from the Bureau of Meteorology.  Copyright in all material sourced from the Bureau of Meteorology resides with the Commonwealth of Australia.